• Join FlightAware (Why Join?)
  • Login
  • US Flag 
12:28AM EST


 

Airport Tracker/Info


-or-


 

Live Flight TrackerFlight Track Log ✈ UAL6148 ✈ 23-Apr-2013 ✈ KCID - KDEN

Flight Track Log - Related Links

Times and Time Zones

All times are in EDT time to prevent confusion due to time zone crossing. See the UAL6148 flight status page for this flight to view local times or setup timezone preferences in your user account.

Time Position Orientation Groundspeed Altitude Reporting Facility
EDT Latitude Longitude Course Direction KTS MPH feet Rate Location/Type
05:43PM 41.8814 -91.8058 263° West 194 223 3,800  Level Chicago Center
05:44PM 41.8744 -91.8864 263° West 207 238 6,200 2,700 Climbing Chicago Center
05:45PM 41.8667 -91.9803 264° West 237 273 9,400 2,100 Climbing Chicago Center
05:46PM 41.8567 -92.1031 264° West 277 319 10,600 1,740 Climbing Chicago Center
05:47PM 41.8489 -92.2208 265° West 313 360 13,000 1,980 Climbing Chicago Center
05:48PM 41.8132 -92.4867 263° West  Level FlightAware Approximate
05:48PM 41.8392 -92.3381 264° West 318 366 14,700  Level Chicago Center
05:49PM 41.8292 -92.4567 264° West 321 369 17,200 1,800 Climbing Chicago Center
05:50PM 41.8186 -92.5714 263° West 314 361 18,500 2,040 Climbing Chicago Center
05:51PM 41.8083 -92.7117 264° West 316 364 21,400 2,400 Climbing Minneapolis Center
05:52PM 41.7992 -92.8114 263° West 302 348 23,500 1,980 Climbing Minneapolis Center
05:53PM 41.7900 -92.9125 263° West 286 329 25,600 1,800 Climbing Minneapolis Center
05:54PM 41.7817 -93.0103 264° West 274 315 27,300 1,800 Climbing Minneapolis Center
05:55PM 41.7722 -93.1261 264° West 266 306 29,300 1,920 Climbing Minneapolis Center
05:56PM 41.7633 -93.2186 263° West 258 297 31,300 1,500 Climbing Minneapolis Center
05:57PM 41.7553 -93.3067 263° West 247 284 32,500 1,080 Climbing Minneapolis Center
05:58PM 41.7475 -93.3953 263° West 243 280 33,600 660 Climbing Minneapolis Center
06:00PM 41.7369 -93.5086 263° West 252 290 34,000 120 Climbing Minneapolis Center
06:01PM 41.7325 -93.6369 267° West 289 333 34,000  Level Minneapolis Center
06:02PM 41.7389 -93.7553 274° West 316 364 34,000  Level Minneapolis Center
06:03PM 41.7450 -93.8708 274° West 327 376 34,000  Level Minneapolis Center
06:04PM 41.7519 -93.9972 274° West 338 389 34,000  Level Minneapolis Center
06:05PM 41.7600 -94.1481 274° West 339 390 34,000  Level Minneapolis Center
06:06PM 41.7661 -94.2728 274° West 336 387 34,000  Level Minneapolis Center
06:07PM 41.7719 -94.3983 274° West 336 387 34,000  Level Minneapolis Center
06:08PM 41.7783 -94.5222 274° West 336 387 34,000  Level Minneapolis Center
06:09PM 41.7844 -94.6453 274° West 332 382 34,000  Level Minneapolis Center
06:10PM 41.7914 -94.7697 274° West 333 383 34,000  Level Minneapolis Center
06:11PM 41.7961 -94.8939 273° West 335 386 34,000 600 Level Minneapolis Center
06:12PM 41.8031 -95.0422 274° West 334 384 35,300 900 Climbing Minneapolis Center
06:13PM 41.8086 -95.1603 274° West 325 374 35,900 300 Climbing Minneapolis Center
06:14PM 41.8136 -95.2800 273° West 322 371 36,000  Climbing Minneapolis Center
06:15PM 41.8186 -95.4058 273° West 335 386 36,000  Level Minneapolis Center
06:16PM 41.8239 -95.5317 273° West 340 391 36,000  Level Minneapolis Center
06:17PM 41.8286 -95.6594 273° West 345 397 36,000  Level Minneapolis Center
06:18PM 41.8350 -95.8153 273° West 351 404 36,000  Level Minneapolis Center
06:19PM 41.8389 -95.9453 272° West 351 404 36,000  Level Minneapolis Center
06:20PM 41.8447 -96.0778 273° West 355 409 36,000  Level Minneapolis Center
06:21PM 41.8483 -96.2108 272° West 358 412 36,000  Level Minneapolis Center
06:22PM 41.8531 -96.3431 273° West 357 411 36,000  Level Minneapolis Center
06:23PM 41.8581 -96.5022 272° West 358 412 36,000  Level Minneapolis Center
06:24PM 41.8622 -96.6342 272° West 356 410 36,000  Level Minneapolis Center
06:25PM 41.8658 -96.7675 272° West 359 413 36,000  Level Minneapolis Center
06:26PM 41.8697 -96.8986 272° West 356 410 36,000  Level Minneapolis Center
06:28PM 41.8736 -97.0317 272° West 357 411 36,000  Level Minneapolis Center
06:29PM 41.8775 -97.1614 272° West 353 406 36,000  Level Minneapolis Center
06:30PM 41.8800 -97.3164 271° West 348 400 36,000  Level Minneapolis Center
06:31PM 41.8842 -97.4453 273° West 348 400 36,000  Level Minneapolis Center
06:32PM 41.8869 -97.5750 272° West 348 400 36,000  Level Minneapolis Center
06:33PM 41.8897 -97.7039 272° West 347 399 36,000  Level Minneapolis Center
06:34PM 41.8928 -97.8328 272° West 347 399 36,000  Level Minneapolis Center
06:35PM 41.8953 -97.9633 272° West 349 402 36,000  Level Minneapolis Center
06:36PM 41.8983 -98.1192 272° West 349 402 36,000  Level Minneapolis Center
06:37PM 41.8997 -98.2542 271° West 347 399 36,000  Level Minneapolis Center
06:38PM 41.9022 -98.3842 272° West 349 402 36,000  Level Minneapolis Center
06:39PM 41.8925 -98.5131 264° West 349 402 36,000  Level Minneapolis Center
06:40PM 41.8722 -98.6394 258° West 348 400 36,000  Level Minneapolis Center
06:41PM 41.8458 -98.7650 254° West 350 403 36,000  Level Minneapolis Center
06:42PM 41.8086 -98.9144 252° West 354 407 36,000  Level Minneapolis Center
06:43PM 41.7694 -99.0625 251° West 353 406 36,000  Level Minneapolis Center
06:44PM 41.7433 -99.1628 251° West 354 407 36,000  Level Denver Center
06:45PM 41.7114 -99.2869 251° West 353 406 36,000  Level Denver Center
06:46PM 41.6719 -99.4350 250° West 353 406 36,000  Level Denver Center
06:47PM 41.6394 -99.5583 251° West 352 405 36,000  Level Denver Center
06:48PM 41.6064 -99.6836 251° West 357 411 36,000  Level Denver Center
06:49PM 41.5708 -99.8181 251° West 362 417 36,000  Level Denver Center
06:50PM 41.5386 -99.9411 251° West 366 421 36,000  Level Denver Center
06:51PM 41.4997 -100.0842 250° West 367 422 36,000  Level Denver Center
06:52PM 41.4658 -100.2083 250° West 371 427 36,000  Level Denver Center
06:53PM 41.4264 -100.3522 250° West 371 427 36,000  Level Denver Center
06:54PM 41.3922 -100.4800 250° West 379 436 36,000  Level Denver Center
06:56PM 41.3519 -100.6256 250° West 378 435 36,000  Level Denver Center
06:57PM 41.3178 -100.7511 250° West 379 436 36,000  Level Denver Center
06:58PM 41.2764 -100.8947 249° West 376 433 36,000  Level Denver Center
06:59PM 41.2422 -101.0172 250° West 373 429 36,000  Level Denver Center
07:00PM 41.2022 -101.1628 250° West 377 434 36,000  Level Denver Center
07:01PM 41.1667 -101.2864 249° West 377 434 36,000  Level Denver Center
07:02PM 41.1314 -101.4117 250° West 380 437 36,000  Level Denver Center
07:03PM 41.0903 -101.5589 250° West 382 440 36,000  Level Denver Center
07:04PM 41.0536 -101.6836 249° West 382 440 36,000  Level Denver Center
07:05PM 41.0114 -101.8303 249° West 382 440 36,000  Level Denver Center
07:06PM 40.9761 -101.9553 250° West 381 438 36,000  Level Denver Center
07:07PM 40.9456 -102.0581 249° West 379 436 36,000  Level Denver Center
07:08PM 40.8953 -102.2231 248° West 379 436 36,000  Level Denver Center
07:09PM 40.8381 -102.3594 241° Southwest 379 436 36,000  Level Denver Center
07:10PM 40.7889 -102.4758 241° Southwest 380 437 36,000  Level Denver Center
07:11PM 40.7308 -102.6131 241° Southwest 384 442 36,000  Level Denver Center
07:12PM 40.6900 -102.7100 241° Southwest 381 438 36,000 -300 Level Denver Center
07:13PM 40.6297 -102.8561 242° Southwest 380 437 35,400 -1,260 Descending Denver Center
07:14PM 40.5767 -102.9797 241° Southwest 383 441 33,400 -2,040 Descending Denver Center
07:15PM 40.5236 -103.1031 241° Southwest 384 442 31,300 -2,100 Descending Denver Center
07:16PM 40.4719 -103.2242 241° Southwest 377 434 29,100 -1,920 Descending Denver Center
07:17PM 40.4219 -103.3397 240° Southwest 362 417 27,000 -1,980 Descending Denver Center
07:18PM 40.3614 -103.4789 240° Southwest 328 377 24,700 -1,860 Descending Denver Center
07:19PM 40.3186 -103.5803 241° Southwest 317 365 23,200 -1,500 Descending Denver Center
07:20PM 40.2742 -103.6806 240° Southwest 317 365 21,700 -1,740 Descending Denver Center
07:21PM 40.2228 -103.8031 241° Southwest 361 415 19,700 -1,980 Descending Denver Center
07:23PM 40.2072 -103.9222 260° West 342 394 17,700 -1,680 Descending Denver Center
07:24PM 40.2169 -104.0361 276° West 318 366 16,000 -1,560 Descending Denver Center
07:25PM 40.2308 -104.1758 277° West 316 364 14,200 -1,620 Descending Denver Center
07:26PM 40.2403 -104.2958 276° West 312 359 12,700 -1,320 Descending Denver Center
07:27PM 40.2314 -104.4006 264° West 289 333 11,500 -1,140 Descending Denver Center
07:28PM 40.1914 -104.5067 244° Southwest 249 287 10,200 -960 Descending Denver Center
07:29PM 40.1603 -104.5553 230° Southwest 243 280 9,400 -1,080 Descending Denver Center
07:30PM 40.1167 -104.5833 206° Southwest 251 289 8,600 -1,200 Descending Denver TRACON
07:31PM 40.0500 -104.6333 210° Southwest 247 284 7,600 -1,020 Descending Denver TRACON
07:31PM 40.0203 -104.6517 205° Southwest 244 281 7,100 -420 Descending Denver Center
07:32PM 39.9761 -104.6869 211° Southwest 183 211 7,000 -540 Descending Denver Center
07:33PM 39.9328 -104.6864 179° South 145 167 6,100 -780 Descending Denver Center
07:34PM 39.8936 -104.6867 180° South 142 163 5,400 -720 Descending Denver Center
07:36PM 39.8617 -104.6732 180° South  Level Estimated
07:43PM 39.8617 -104.6732 180° South  Level Estimated
07:44PM 39.8617 -104.6732 180° South  Level Estimated